Minneapolis-St Paul International/Wold-Chamberlain Airport
KMSP : now visible

Airfield :











YOU CAN JOIN US ON...

 
LOGIN :

Register | Disclaimer

   EN    FR    IT 

 









Legend :    VFR   Marginal VFR   IFR   Intensive IFR   Very Intensive IFR
Visi :
Ceiling :
>= 8 km
>= 3000ft
5 to 8 km
1000 to 3000 ft
1500m to 5 km
500 to 1000 ft
800 to 1500m
200 to 500 ft
< 800m
< 200 ft
Symbols :   Thunderstorms  Fog  Heavy snow  Heavy precipitations  Wind > 20 kt






- Airport Elevation : 841 ft
- IATA code : MSP


KMSP - Minneapolis-St Paul International/Wold-Chamberlain

CURRENT METAR :
  • 072053Z 15013G20KT 10SM FEW030 BKN150 27/20 A2995 RMK AO2 PK WND 15030/2037 SLP137 60000 T02670200 55010

EXPIRED METARs :
  • 071953Z 17011G27KT 10SM FEW035 SCT090 BKN150 BKN250 27/20 A2994 RMK AO2 PK WND 15028/1930 RAB12E24 SLP134 VCSH SE-S P0000 T02670200
  • 071853Z 18016G21KT 10SM FEW025 SCT040 BKN120 BKN200 27/20 A2996 RMK AO2 SLP139 CB DSNT SW T02720200

TAF KMSP
Valid from the 07 at 21:00 until the 09 at 00:00 UTC


072111Z 0721/0824 16015G25KT P6SM SCT030 BKN100
FM080400 17010G18KT P6SM SCT030 OVC050
FM080700 17012G20KT 5SM -TSRA BKN030CB
TEMPO 0807/0810 2SM TSRA OVC015CB
FM081200 20007KT P6SM BKN020
FM082000 23008KT P6SM BKN035
KZMP FIR / North America



MET'MAP, your aeronautical weather chart ! - Copyright ORBIFLY December 2007 - Disclaimer

ORBIFLY MET'MAP TEAM :

Programming & Development : Alexandra Zaïnal
Concept & original design : Baudouin d'Aumeries
Assistance for programming : Marc-Olivier Méhu
Technical & hardware support : Manuel Goepfert

Contact : metmap@orbifly.com




SOURCES & CREDITS :

   NOAA       Earth
Advisory